sensor_id;sensor_type;location;lat;lon;timestamp;P1;durP1;ratioP1;P2;durP2;ratioP2
71104;SDS011;58760;48.716;8.962;2023-08-24T00:00:52;11.05;;;4.80;;
71104;SDS011;58760;48.716;8.962;2023-08-24T00:03:18;6.78;;;3.83;;
71104;SDS011;58760;48.716;8.962;2023-08-24T00:05:43;8.30;;;4.05;;
71104;SDS011;58760;48.716;8.962;2023-08-24T00:08:08;7.45;;;3.95;;
71104;SDS011;58760;48.716;8.962;2023-08-24T00:10:35;9.13;;;3.70;;
71104;SDS011;58760;48.716;8.962;2023-08-24T00:13:01;7.07;;;4.00;;
71104;SDS011;58760;48.716;8.962;2023-08-24T00:17:52;9.15;;;4.25;;
71104;SDS011;58760;48.716;8.962;2023-08-24T00:20:17;7.82;;;4.45;;
71104;SDS011;58760;48.716;8.962;2023-08-24T00:22:45;8.23;;;4.45;;
71104;SDS011;58760;48.716;8.962;2023-08-24T00:25:11;7.70;;;4.10;;
71104;SDS011;58760;48.716;8.962;2023-08-24T00:30:02;8.57;;;4.10;;
71104;SDS011;58760;48.716;8.962;2023-08-24T00:32:31;8.70;;;3.83;;
71104;SDS011;58760;48.716;8.962;2023-08-24T00:35:03;6.85;;;4.07;;
71104;SDS011;58760;48.716;8.962;2023-08-24T00:39:59;9.05;;;4.25;;
71104;SDS011;58760;48.716;8.962;2023-08-24T00:42:26;10.98;;;4.78;;
71104;SDS011;58760;48.716;8.962;2023-08-24T00:44:51;9.32;;;4.45;;
71104;SDS011;58760;48.716;8.962;2023-08-24T00:47:17;7.30;;;4.18;;
71104;SDS011;58760;48.716;8.962;2023-08-24T00:49:42;8.20;;;4.40;;
71104;SDS011;58760;48.716;8.962;2023-08-24T00:52:08;8.43;;;4.18;;
71104;SDS011;58760;48.716;8.962;2023-08-24T00:54:35;9.38;;;4.68;;
71104;SDS011;58760;48.716;8.962;2023-08-24T00:57:04;8.18;;;4.40;;
71104;SDS011;58760;48.716;8.962;2023-08-24T00:59:30;9.65;;;4.43;;
71104;SDS011;58760;48.716;8.962;2023-08-24T01:01:56;8.20;;;3.85;;
71104;SDS011;58760;48.716;8.962;2023-08-24T01:06:47;8.32;;;3.75;;
71104;SDS011;58760;48.716;8.962;2023-08-24T01:09:13;9.73;;;4.10;;
71104;SDS011;58760;48.716;8.962;2023-08-24T01:11:48;10.05;;;4.50;;
71104;SDS011;58760;48.716;8.962;2023-08-24T01:17:15;11.60;;;5.05;;
71104;SDS011;58760;48.716;8.962;2023-08-24T01:19:46;10.25;;;5.00;;
71104;SDS011;58760;48.716;8.962;2023-08-24T01:25:15;10.05;;;5.18;;
71104;SDS011;58760;48.716;8.962;2023-08-24T01:27:44;9.73;;;4.50;;
71104;SDS011;58760;48.716;8.962;2023-08-24T01:30:12;7.85;;;4.40;;
71104;SDS011;58760;48.716;8.962;2023-08-24T01:32:42;8.40;;;4.35;;
71104;SDS011;58760;48.716;8.962;2023-08-24T01:35:08;8.32;;;4.43;;
71104;SDS011;58760;48.716;8.962;2023-08-24T01:37:34;12.88;;;4.50;;
71104;SDS011;58760;48.716;8.962;2023-08-24T01:40:36;9.18;;;4.50;;
71104;SDS011;58760;48.716;8.962;2023-08-24T01:42:59;7.70;;;4.40;;
71104;SDS011;58760;48.716;8.962;2023-08-24T01:45:29;9.38;;;4.60;;
71104;SDS011;58760;48.716;8.962;2023-08-24T01:47:56;9.18;;;4.38;;
71104;SDS011;58760;48.716;8.962;2023-08-24T01:50:24;9.00;;;4.70;;
71104;SDS011;58760;48.716;8.962;2023-08-24T01:52:50;10.57;;;4.57;;
71104;SDS011;58760;48.716;8.962;2023-08-24T01:55:18;9.15;;;4.72;;
71104;SDS011;58760;48.716;8.962;2023-08-24T01:57:44;9.18;;;4.28;;
71104;SDS011;58760;48.716;8.962;2023-08-24T02:00:10;9.60;;;4.45;;
71104;SDS011;58760;48.716;8.962;2023-08-24T02:02:36;9.75;;;4.45;;
71104;SDS011;58760;48.716;8.962;2023-08-24T02:05:02;8.95;;;4.88;;
71104;SDS011;58760;48.716;8.962;2023-08-24T02:07:28;11.30;;;4.28;;
71104;SDS011;58760;48.716;8.962;2023-08-24T02:09:53;7.55;;;4.53;;
71104;SDS011;58760;48.716;8.962;2023-08-24T02:12:18;8.23;;;4.57;;
71104;SDS011;58760;48.716;8.962;2023-08-24T02:14:44;7.55;;;4.53;;
71104;SDS011;58760;48.716;8.962;2023-08-24T02:17:09;10.05;;;4.55;;
71104;SDS011;58760;48.716;8.962;2023-08-24T02:19:35;7.85;;;4.72;;
71104;SDS011;58760;48.716;8.962;2023-08-24T02:22:00;8.75;;;4.10;;
71104;SDS011;58760;48.716;8.962;2023-08-24T02:24:25;8.55;;;4.38;;
71104;SDS011;58760;48.716;8.962;2023-08-24T02:26:51;9.77;;;4.20;;
71104;SDS011;58760;48.716;8.962;2023-08-24T02:29:16;8.00;;;4.25;;
71104;SDS011;58760;48.716;8.962;2023-08-24T02:31:41;9.65;;;4.60;;
71104;SDS011;58760;48.716;8.962;2023-08-24T02:34:07;9.23;;;4.43;;
71104;SDS011;58760;48.716;8.962;2023-08-24T02:36:32;7.80;;;4.47;;
71104;SDS011;58760;48.716;8.962;2023-08-24T02:38:58;8.30;;;4.72;;
71104;SDS011;58760;48.716;8.962;2023-08-24T02:41:25;7.82;;;4.47;;
71104;SDS011;58760;48.716;8.962;2023-08-24T02:43:51;9.45;;;4.97;;
71104;SDS011;58760;48.716;8.962;2023-08-24T02:46:16;9.50;;;4.93;;
71104;SDS011;58760;48.716;8.962;2023-08-24T02:48:43;8.23;;;4.85;;
71104;SDS011;58760;48.716;8.962;2023-08-24T02:51:09;8.80;;;5.03;;
71104;SDS011;58760;48.716;8.962;2023-08-24T02:53:35;9.00;;;4.82;;
71104;SDS011;58760;48.716;8.962;2023-08-24T02:56:01;11.88;;;5.05;;
71104;SDS011;58760;48.716;8.962;2023-08-24T03:00:53;7.90;;;4.82;;
71104;SDS011;58760;48.716;8.962;2023-08-24T03:03:18;7.25;;;4.78;;
71104;SDS011;58760;48.716;8.962;2023-08-24T03:08:20;7.95;;;4.38;;
71104;SDS011;58760;48.716;8.962;2023-08-24T03:10:45;8.10;;;4.82;;
71104;SDS011;58760;48.716;8.962;2023-08-24T03:13:10;9.43;;;4.50;;
71104;SDS011;58760;48.716;8.962;2023-08-24T03:15:36;8.50;;;4.80;;
71104;SDS011;58760;48.716;8.962;2023-08-24T03:18:02;8.50;;;4.55;;
71104;SDS011;58760;48.716;8.962;2023-08-24T03:20:27;10.25;;;5.35;;
71104;SDS011;58760;48.716;8.962;2023-08-24T03:22:52;10.00;;;4.97;;
71104;SDS011;58760;48.716;8.962;2023-08-24T03:25:18;10.98;;;4.57;;
71104;SDS011;58760;48.716;8.962;2023-08-24T03:27:43;9.73;;;4.93;;
71104;SDS011;58760;48.716;8.962;2023-08-24T03:30:08;8.77;;;4.90;;
71104;SDS011;58760;48.716;8.962;2023-08-24T03:32:34;9.02;;;4.95;;
71104;SDS011;58760;48.716;8.962;2023-08-24T03:34:59;8.50;;;4.72;;
71104;SDS011;58760;48.716;8.962;2023-08-24T03:37:25;8.40;;;4.82;;
71104;SDS011;58760;48.716;8.962;2023-08-24T03:39:50;11.73;;;5.15;;
71104;SDS011;58760;48.716;8.962;2023-08-24T03:42:16;8.07;;;5.03;;
71104;SDS011;58760;48.716;8.962;2023-08-24T03:44:41;9.20;;;4.43;;
71104;SDS011;58760;48.716;8.962;2023-08-24T03:47:06;10.95;;;4.70;;
71104;SDS011;58760;48.716;8.962;2023-08-24T03:49:32;7.95;;;4.60;;
71104;SDS011;58760;48.716;8.962;2023-08-24T03:51:57;7.63;;;4.72;;
71104;SDS011;58760;48.716;8.962;2023-08-24T03:54:22;8.13;;;4.53;;
71104;SDS011;58760;48.716;8.962;2023-08-24T03:56:48;9.98;;;4.47;;
71104;SDS011;58760;48.716;8.962;2023-08-24T03:59:13;8.77;;;5.45;;
71104;SDS011;58760;48.716;8.962;2023-08-24T04:01:39;8.98;;;4.80;;
71104;SDS011;58760;48.716;8.962;2023-08-24T04:04:04;11.13;;;5.38;;
71104;SDS011;58760;48.716;8.962;2023-08-24T04:06:30;10.63;;;5.53;;
71104;SDS011;58760;48.716;8.962;2023-08-24T04:08:55;9.50;;;5.68;;
71104;SDS011;58760;48.716;8.962;2023-08-24T04:11:20;6.97;;;4.70;;
71104;SDS011;58760;48.716;8.962;2023-08-24T04:13:46;14.93;;;5.45;;
71104;SDS011;58760;48.716;8.962;2023-08-24T04:16:11;12.05;;;5.45;;
71104;SDS011;58760;48.716;8.962;2023-08-24T04:18:36;9.07;;;5.03;;
71104;SDS011;58760;48.716;8.962;2023-08-24T04:21:02;12.38;;;5.53;;
71104;SDS011;58760;48.716;8.962;2023-08-24T04:23:27;11.05;;;5.45;;
71104;SDS011;58760;48.716;8.962;2023-08-24T04:25:53;11.93;;;6.05;;
71104;SDS011;58760;48.716;8.962;2023-08-24T04:28:19;10.43;;;5.40;;
71104;SDS011;58760;48.716;8.962;2023-08-24T04:30:51;9.07;;;4.97;;
71104;SDS011;58760;48.716;8.962;2023-08-24T04:33:21;11.23;;;4.80;;
71104;SDS011;58760;48.716;8.962;2023-08-24T04:35:47;9.15;;;5.22;;
71104;SDS011;58760;48.716;8.962;2023-08-24T04:38:13;8.20;;;4.93;;
71104;SDS011;58760;48.716;8.962;2023-08-24T04:41:12;9.93;;;5.18;;
71104;SDS011;58760;48.716;8.962;2023-08-24T04:43:34;9.57;;;5.20;;
71104;SDS011;58760;48.716;8.962;2023-08-24T04:46:01;8.98;;;4.97;;
71104;SDS011;58760;48.716;8.962;2023-08-24T04:48:27;7.70;;;5.28;;
71104;SDS011;58760;48.716;8.962;2023-08-24T04:50:52;9.07;;;5.43;;
71104;SDS011;58760;48.716;8.962;2023-08-24T04:55:44;7.35;;;4.72;;
71104;SDS011;58760;48.716;8.962;2023-08-24T04:58:10;8.77;;;5.38;;
71104;SDS011;58760;48.716;8.962;2023-08-24T05:00:37;10.60;;;5.22;;
71104;SDS011;58760;48.716;8.962;2023-08-24T05:05:29;9.55;;;5.43;;
71104;SDS011;58760;48.716;8.962;2023-08-24T05:07:56;10.60;;;4.97;;
71104;SDS011;58760;48.716;8.962;2023-08-24T05:10:22;8.05;;;4.75;;
71104;SDS011;58760;48.716;8.962;2023-08-24T05:12:47;9.40;;;4.82;;
71104;SDS011;58760;48.716;8.962;2023-08-24T05:15:13;10.13;;;5.57;;
71104;SDS011;58760;48.716;8.962;2023-08-24T05:17:38;13.05;;;4.85;;
71104;SDS011;58760;48.716;8.962;2023-08-24T05:20:05;8.25;;;4.80;;
71104;SDS011;58760;48.716;8.962;2023-08-24T05:22:31;9.63;;;5.07;;
71104;SDS011;58760;48.716;8.962;2023-08-24T05:24:56;12.00;;;4.93;;
71104;SDS011;58760;48.716;8.962;2023-08-24T05:27:22;9.38;;;4.80;;
71104;SDS011;58760;48.716;8.962;2023-08-24T05:29:47;12.80;;;4.80;;
71104;SDS011;58760;48.716;8.962;2023-08-24T05:32:12;10.25;;;5.32;;
71104;SDS011;58760;48.716;8.962;2023-08-24T05:34:38;12.63;;;5.10;;
71104;SDS011;58760;48.716;8.962;2023-08-24T05:37:03;12.02;;;5.40;;
71104;SDS011;58760;48.716;8.962;2023-08-24T05:39:28;10.65;;;5.03;;
71104;SDS011;58760;48.716;8.962;2023-08-24T05:41:54;9.63;;;4.95;;
71104;SDS011;58760;48.716;8.962;2023-08-24T05:44:19;8.45;;;5.35;;
71104;SDS011;58760;48.716;8.962;2023-08-24T05:46:46;13.13;;;6.25;;
71104;SDS011;58760;48.716;8.962;2023-08-24T05:49:11;11.95;;;5.13;;
71104;SDS011;58760;48.716;8.962;2023-08-24T05:51:37;7.90;;;4.90;;
71104;SDS011;58760;48.716;8.962;2023-08-24T05:54:02;9.88;;;5.32;;
71104;SDS011;58760;48.716;8.962;2023-08-24T05:56:28;17.90;;;5.85;;
71104;SDS011;58760;48.716;8.962;2023-08-24T05:58:54;17.08;;;5.22;;
71104;SDS011;58760;48.716;8.962;2023-08-24T06:01:20;14.52;;;5.90;;
71104;SDS011;58760;48.716;8.962;2023-08-24T06:03:45;13.05;;;5.53;;
71104;SDS011;58760;48.716;8.962;2023-08-24T06:06:11;15.77;;;5.22;;
71104;SDS011;58760;48.716;8.962;2023-08-24T06:11:01;17.15;;;6.25;;
71104;SDS011;58760;48.716;8.962;2023-08-24T06:13:27;14.43;;;5.32;;
71104;SDS011;58760;48.716;8.962;2023-08-24T06:15:53;21.85;;;5.82;;
71104;SDS011;58760;48.716;8.962;2023-08-24T06:18:19;17.70;;;5.13;;
71104;SDS011;58760;48.716;8.962;2023-08-24T06:23:10;13.50;;;5.65;;
71104;SDS011;58760;48.716;8.962;2023-08-24T06:25:38;15.77;;;5.70;;
71104;SDS011;58760;48.716;8.962;2023-08-24T06:30:29;20.60;;;5.18;;
71104;SDS011;58760;48.716;8.962;2023-08-24T06:32:58;17.30;;;4.85;;
71104;SDS011;58760;48.716;8.962;2023-08-24T06:35:24;23.23;;;5.95;;
71104;SDS011;58760;48.716;8.962;2023-08-24T06:37:49;20.40;;;5.47;;
71104;SDS011;58760;48.716;8.962;2023-08-24T06:42:42;17.15;;;5.43;;
71104;SDS011;58760;48.716;8.962;2023-08-24T06:47:35;13.18;;;5.03;;
71104;SDS011;58760;48.716;8.962;2023-08-24T06:52:25;13.05;;;5.20;;
71104;SDS011;58760;48.716;8.962;2023-08-24T06:54:51;14.15;;;5.40;;
71104;SDS011;58760;48.716;8.962;2023-08-24T06:57:18;9.32;;;4.43;;
71104;SDS011;58760;48.716;8.962;2023-08-24T07:02:09;12.57;;;4.72;;
71104;SDS011;58760;48.716;8.962;2023-08-24T07:04:35;11.02;;;5.22;;
71104;SDS011;58760;48.716;8.962;2023-08-24T07:07:02;13.57;;;5.10;;
71104;SDS011;58760;48.716;8.962;2023-08-24T07:09:27;16.67;;;4.55;;
71104;SDS011;58760;48.716;8.962;2023-08-24T07:11:53;16.80;;;4.55;;
71104;SDS011;58760;48.716;8.962;2023-08-24T07:14:18;13.27;;;4.82;;
71104;SDS011;58760;48.716;8.962;2023-08-24T07:16:44;12.05;;;4.57;;
71104;SDS011;58760;48.716;8.962;2023-08-24T07:19:09;12.00;;;4.28;;
71104;SDS011;58760;48.716;8.962;2023-08-24T07:24:00;9.90;;;3.92;;
71104;SDS011;58760;48.716;8.962;2023-08-24T07:28:52;7.80;;;4.07;;
71104;SDS011;58760;48.716;8.962;2023-08-24T07:33:42;9.43;;;4.00;;
71104;SDS011;58760;48.716;8.962;2023-08-24T07:36:10;11.60;;;3.88;;
71104;SDS011;58760;48.716;8.962;2023-08-24T07:38:36;8.68;;;3.70;;
71104;SDS011;58760;48.716;8.962;2023-08-24T07:41:01;10.88;;;3.92;;
71104;SDS011;58760;48.716;8.962;2023-08-24T07:45:52;9.13;;;3.72;;
71104;SDS011;58760;48.716;8.962;2023-08-24T07:50:42;9.70;;;3.87;;
71104;SDS011;58760;48.716;8.962;2023-08-24T07:53:08;10.93;;;3.88;;
71104;SDS011;58760;48.716;8.962;2023-08-24T07:55:33;9.32;;;3.60;;
71104;SDS011;58760;48.716;8.962;2023-08-24T08:00:24;9.50;;;3.27;;
71104;SDS011;58760;48.716;8.962;2023-08-24T08:02:50;8.95;;;3.50;;
71104;SDS011;58760;48.716;8.962;2023-08-24T08:05:16;7.80;;;3.40;;
71104;SDS011;58760;48.716;8.962;2023-08-24T08:07:42;8.10;;;3.70;;
71104;SDS011;58760;48.716;8.962;2023-08-24T08:12:33;8.20;;;3.40;;
71104;SDS011;58760;48.716;8.962;2023-08-24T08:14:59;8.32;;;3.25;;
71104;SDS011;58760;48.716;8.962;2023-08-24T08:19:54;7.87;;;3.10;;
71104;SDS011;58760;48.716;8.962;2023-08-24T08:22:23;6.68;;;3.33;;
71104;SDS011;58760;48.716;8.962;2023-08-24T08:27:15;10.73;;;3.80;;
71104;SDS011;58760;48.716;8.962;2023-08-24T08:32:05;8.60;;;3.10;;
71104;SDS011;58760;48.716;8.962;2023-08-24T08:34:31;10.57;;;3.40;;
71104;SDS011;58760;48.716;8.962;2023-08-24T08:39:22;7.82;;;3.50;;
71104;SDS011;58760;48.716;8.962;2023-08-24T08:44:14;7.90;;;3.40;;
71104;SDS011;58760;48.716;8.962;2023-08-24T08:46:40;10.80;;;3.25;;
71104;SDS011;58760;48.716;8.962;2023-08-24T08:49:07;7.18;;;3.05;;
71104;SDS011;58760;48.716;8.962;2023-08-24T08:53:59;11.93;;;3.33;;
71104;SDS011;58760;48.716;8.962;2023-08-24T08:58:51;9.40;;;3.08;;
71104;SDS011;58760;48.716;8.962;2023-08-24T09:01:17;6.75;;;2.95;;
71104;SDS011;58760;48.716;8.962;2023-08-24T09:03:44;6.78;;;2.83;;
71104;SDS011;58760;48.716;8.962;2023-08-24T09:06:10;8.05;;;3.28;;
71104;SDS011;58760;48.716;8.962;2023-08-24T09:08:35;10.05;;;3.25;;
71104;SDS011;58760;48.716;8.962;2023-08-24T09:11:02;8.40;;;3.40;;
71104;SDS011;58760;48.716;8.962;2023-08-24T09:13:28;9.20;;;3.38;;
71104;SDS011;58760;48.716;8.962;2023-08-24T09:15:55;6.22;;;3.08;;
71104;SDS011;58760;48.716;8.962;2023-08-24T09:18:33;7.63;;;3.28;;
71104;SDS011;58760;48.716;8.962;2023-08-24T09:21:08;9.90;;;3.63;;
71104;SDS011;58760;48.716;8.962;2023-08-24T09:23:35;9.00;;;3.35;;
71104;SDS011;58760;48.716;8.962;2023-08-24T09:26:00;7.13;;;3.35;;
71104;SDS011;58760;48.716;8.962;2023-08-24T09:28:26;7.53;;;3.50;;
71104;SDS011;58760;48.716;8.962;2023-08-24T09:30:54;8.50;;;3.50;;
71104;SDS011;58760;48.716;8.962;2023-08-24T09:33:20;8.05;;;3.70;;
71104;SDS011;58760;48.716;8.962;2023-08-24T09:35:52;10.07;;;3.42;;
71104;SDS011;58760;48.716;8.962;2023-08-24T09:38:19;6.70;;;3.30;;
71104;SDS011;58760;48.716;8.962;2023-08-24T09:40:47;8.52;;;3.40;;
71104;SDS011;58760;48.716;8.962;2023-08-24T09:43:18;8.43;;;3.58;;
71104;SDS011;58760;48.716;8.962;2023-08-24T09:45:48;7.30;;;3.30;;
71104;SDS011;58760;48.716;8.962;2023-08-24T09:48:17;8.10;;;3.33;;
71104;SDS011;58760;48.716;8.962;2023-08-24T09:50:46;8.02;;;3.30;;
71104;SDS011;58760;48.716;8.962;2023-08-24T09:53:16;9.43;;;3.72;;
71104;SDS011;58760;48.716;8.962;2023-08-24T09:56:01;8.85;;;3.30;;
71104;SDS011;58760;48.716;8.962;2023-08-24T09:58:28;8.35;;;3.45;;
71104;SDS011;58760;48.716;8.962;2023-08-24T10:00:54;8.05;;;3.38;;
71104;SDS011;58760;48.716;8.962;2023-08-24T10:03:21;10.85;;;4.10;;
71104;SDS011;58760;48.716;8.962;2023-08-24T10:05:51;11.68;;;3.90;;
71104;SDS011;58760;48.716;8.962;2023-08-24T10:08:24;7.55;;;3.60;;
71104;SDS011;58760;48.716;8.962;2023-08-24T10:10:53;9.82;;;3.60;;
71104;SDS011;58760;48.716;8.962;2023-08-24T10:13:23;10.85;;;3.80;;
71104;SDS011;58760;48.716;8.962;2023-08-24T10:15:56;6.88;;;3.25;;
71104;SDS011;58760;48.716;8.962;2023-08-24T10:18:22;7.50;;;3.25;;
71104;SDS011;58760;48.716;8.962;2023-08-24T10:20:49;7.57;;;3.88;;
71104;SDS011;58760;48.716;8.962;2023-08-24T10:23:15;8.70;;;3.80;;
71104;SDS011;58760;48.716;8.962;2023-08-24T10:25:41;8.15;;;3.78;;
71104;SDS011;58760;48.716;8.962;2023-08-24T10:28:09;10.80;;;3.25;;
71104;SDS011;58760;48.716;8.962;2023-08-24T10:30:36;12.88;;;3.70;;
71104;SDS011;58760;48.716;8.962;2023-08-24T10:33:02;10.70;;;3.75;;
71104;SDS011;58760;48.716;8.962;2023-08-24T10:35:29;8.95;;;4.10;;
71104;SDS011;58760;48.716;8.962;2023-08-24T10:37:55;10.43;;;3.60;;
71104;SDS011;58760;48.716;8.962;2023-08-24T10:40:41;15.20;;;4.07;;
71104;SDS011;58760;48.716;8.962;2023-08-24T10:43:09;10.95;;;3.88;;
71104;SDS011;58760;48.716;8.962;2023-08-24T10:48:20;7.88;;;4.07;;
71104;SDS011;58760;48.716;8.962;2023-08-24T10:51:15;11.77;;;4.20;;
71104;SDS011;58760;48.716;8.962;2023-08-24T10:53:44;12.45;;;4.13;;
71104;SDS011;58760;48.716;8.962;2023-08-24T10:56:14;10.52;;;3.92;;
71104;SDS011;58760;48.716;8.962;2023-08-24T10:58:41;9.75;;;3.50;;
71104;SDS011;58760;48.716;8.962;2023-08-24T11:01:07;11.23;;;4.03;;
71104;SDS011;58760;48.716;8.962;2023-08-24T11:03:39;14.00;;;3.70;;
71104;SDS011;58760;48.716;8.962;2023-08-24T11:06:17;11.68;;;3.88;;
71104;SDS011;58760;48.716;8.962;2023-08-24T11:08:49;10.13;;;3.70;;
71104;SDS011;58760;48.716;8.962;2023-08-24T11:11:38;9.95;;;3.92;;
71104;SDS011;58760;48.716;8.962;2023-08-24T11:16:51;8.18;;;3.75;;
71104;SDS011;58760;48.716;8.962;2023-08-24T11:19:17;7.97;;;3.72;;
71104;SDS011;58760;48.716;8.962;2023-08-24T11:21:43;11.65;;;4.07;;
71104;SDS011;58760;48.716;8.962;2023-08-24T11:24:13;9.52;;;4.07;;
71104;SDS011;58760;48.716;8.962;2023-08-24T11:26:43;11.43;;;4.10;;
71104;SDS011;58760;48.716;8.962;2023-08-24T11:29:10;12.07;;;4.10;;
71104;SDS011;58760;48.716;8.962;2023-08-24T11:31:36;16.73;;;4.50;;
71104;SDS011;58760;48.716;8.962;2023-08-24T11:34:02;12.20;;;4.03;;
71104;SDS011;58760;48.716;8.962;2023-08-24T11:36:29;9.13;;;4.05;;
71104;SDS011;58760;48.716;8.962;2023-08-24T11:38:56;13.65;;;4.50;;
71104;SDS011;58760;48.716;8.962;2023-08-24T11:41:23;9.73;;;3.72;;
71104;SDS011;58760;48.716;8.962;2023-08-24T11:43:49;10.10;;;4.00;;
71104;SDS011;58760;48.716;8.962;2023-08-24T11:46:16;9.82;;;3.85;;
71104;SDS011;58760;48.716;8.962;2023-08-24T11:48:43;13.50;;;4.95;;
71104;SDS011;58760;48.716;8.962;2023-08-24T11:51:09;10.27;;;3.97;;
71104;SDS011;58760;48.716;8.962;2023-08-24T11:53:37;12.50;;;4.13;;
71104;SDS011;58760;48.716;8.962;2023-08-24T11:56:04;11.43;;;3.88;;
71104;SDS011;58760;48.716;8.962;2023-08-24T11:58:30;9.80;;;4.10;;
71104;SDS011;58760;48.716;8.962;2023-08-24T12:00:56;12.05;;;4.05;;
71104;SDS011;58760;48.716;8.962;2023-08-24T12:03:22;9.13;;;4.13;;
71104;SDS011;58760;48.716;8.962;2023-08-24T12:05:47;9.95;;;3.67;;
71104;SDS011;58760;48.716;8.962;2023-08-24T12:08:13;11.90;;;3.85;;
71104;SDS011;58760;48.716;8.962;2023-08-24T12:10:42;10.95;;;4.10;;
71104;SDS011;58760;48.716;8.962;2023-08-24T12:13:08;12.32;;;3.90;;
71104;SDS011;58760;48.716;8.962;2023-08-24T12:15:35;11.23;;;4.15;;
71104;SDS011;58760;48.716;8.962;2023-08-24T12:18:10;10.98;;;3.88;;
71104;SDS011;58760;48.716;8.962;2023-08-24T12:20:36;14.18;;;4.10;;
71104;SDS011;58760;48.716;8.962;2023-08-24T12:23:02;11.77;;;3.90;;
71104;SDS011;58760;48.716;8.962;2023-08-24T12:25:27;10.10;;;3.70;;
71104;SDS011;58760;48.716;8.962;2023-08-24T12:28:07;8.82;;;4.03;;
71104;SDS011;58760;48.716;8.962;2023-08-24T12:30:43;10.55;;;3.72;;
71104;SDS011;58760;48.716;8.962;2023-08-24T12:33:20;16.30;;;4.30;;
71104;SDS011;58760;48.716;8.962;2023-08-24T12:35:47;8.73;;;3.88;;
71104;SDS011;58760;48.716;8.962;2023-08-24T12:38:12;11.73;;;4.10;;
71104;SDS011;58760;48.716;8.962;2023-08-24T12:40:38;9.45;;;3.70;;
71104;SDS011;58760;48.716;8.962;2023-08-24T12:43:03;10.05;;;3.90;;
71104;SDS011;58760;48.716;8.962;2023-08-24T12:45:28;12.02;;;3.85;;
71104;SDS011;58760;48.716;8.962;2023-08-24T12:47:54;9.15;;;3.67;;
71104;SDS011;58760;48.716;8.962;2023-08-24T12:50:19;13.32;;;4.45;;
71104;SDS011;58760;48.716;8.962;2023-08-24T12:52:44;12.95;;;3.83;;
71104;SDS011;58760;48.716;8.962;2023-08-24T12:55:10;15.15;;;4.32;;
71104;SDS011;58760;48.716;8.962;2023-08-24T12:57:35;9.57;;;3.83;;
71104;SDS011;58760;48.716;8.962;2023-08-24T13:00:00;12.65;;;3.60;;
71104;SDS011;58760;48.716;8.962;2023-08-24T13:02:26;11.82;;;3.55;;
71104;SDS011;58760;48.716;8.962;2023-08-24T13:04:51;13.27;;;3.40;;
71104;SDS011;58760;48.716;8.962;2023-08-24T13:07:17;15.27;;;4.25;;
71104;SDS011;58760;48.716;8.962;2023-08-24T13:09:42;12.23;;;4.10;;
71104;SDS011;58760;48.716;8.962;2023-08-24T13:12:07;13.40;;;3.88;;
71104;SDS011;58760;48.716;8.962;2023-08-24T13:14:33;14.88;;;3.53;;
71104;SDS011;58760;48.716;8.962;2023-08-24T13:16:58;18.33;;;4.03;;
71104;SDS011;58760;48.716;8.962;2023-08-24T13:19:23;16.23;;;4.03;;
71104;SDS011;58760;48.716;8.962;2023-08-24T13:21:49;10.20;;;3.45;;
71104;SDS011;58760;48.716;8.962;2023-08-24T13:24:14;15.93;;;3.33;;
71104;SDS011;58760;48.716;8.962;2023-08-24T13:26:39;15.48;;;3.80;;
71104;SDS011;58760;48.716;8.962;2023-08-24T13:29:05;14.07;;;3.72;;
71104;SDS011;58760;48.716;8.962;2023-08-24T13:31:30;18.50;;;3.72;;
71104;SDS011;58760;48.716;8.962;2023-08-24T13:33:55;15.30;;;4.00;;
71104;SDS011;58760;48.716;8.962;2023-08-24T13:36:21;15.48;;;4.07;;
71104;SDS011;58760;48.716;8.962;2023-08-24T13:38:46;10.02;;;3.67;;
71104;SDS011;58760;48.716;8.962;2023-08-24T13:41:12;14.80;;;3.75;;
71104;SDS011;58760;48.716;8.962;2023-08-24T13:43:38;18.27;;;4.00;;
71104;SDS011;58760;48.716;8.962;2023-08-24T13:46:04;17.08;;;3.90;;
71104;SDS011;58760;48.716;8.962;2023-08-24T13:48:30;16.50;;;3.70;;
71104;SDS011;58760;48.716;8.962;2023-08-24T13:50:58;16.85;;;3.90;;
71104;SDS011;58760;48.716;8.962;2023-08-24T13:53:24;13.10;;;3.35;;
71104;SDS011;58760;48.716;8.962;2023-08-24T13:55:49;11.82;;;3.63;;
71104;SDS011;58760;48.716;8.962;2023-08-24T13:58:14;13.30;;;3.90;;
71104;SDS011;58760;48.716;8.962;2023-08-24T14:00:40;13.35;;;3.92;;
71104;SDS011;58760;48.716;8.962;2023-08-24T14:03:05;10.68;;;3.78;;
71104;SDS011;58760;48.716;8.962;2023-08-24T14:05:30;11.00;;;4.00;;
71104;SDS011;58760;48.716;8.962;2023-08-24T14:07:56;12.98;;;3.60;;
71104;SDS011;58760;48.716;8.962;2023-08-24T14:10:21;14.98;;;3.72;;
71104;SDS011;58760;48.716;8.962;2023-08-24T14:12:47;16.63;;;3.88;;
71104;SDS011;58760;48.716;8.962;2023-08-24T14:15:12;9.55;;;3.38;;
71104;SDS011;58760;48.716;8.962;2023-08-24T14:17:38;12.77;;;3.42;;
71104;SDS011;58760;48.716;8.962;2023-08-24T14:20:04;13.60;;;3.63;;
71104;SDS011;58760;48.716;8.962;2023-08-24T14:22:29;15.02;;;4.20;;
71104;SDS011;58760;48.716;8.962;2023-08-24T14:24:55;9.15;;;3.65;;
71104;SDS011;58760;48.716;8.962;2023-08-24T14:27:20;12.13;;;3.85;;
71104;SDS011;58760;48.716;8.962;2023-08-24T14:29:46;19.55;;;4.28;;
71104;SDS011;58760;48.716;8.962;2023-08-24T14:32:11;13.88;;;3.85;;
71104;SDS011;58760;48.716;8.962;2023-08-24T14:34:36;10.32;;;3.53;;
71104;SDS011;58760;48.716;8.962;2023-08-24T14:37:01;12.85;;;3.85;;
71104;SDS011;58760;48.716;8.962;2023-08-24T14:39:28;20.20;;;4.18;;
71104;SDS011;58760;48.716;8.962;2023-08-24T14:41:53;12.02;;;3.83;;
71104;SDS011;58760;48.716;8.962;2023-08-24T14:44:19;18.98;;;4.18;;
71104;SDS011;58760;48.716;8.962;2023-08-24T14:46:45;20.50;;;5.22;;
71104;SDS011;58760;48.716;8.962;2023-08-24T14:49:11;35.97;;;5.63;;
71104;SDS011;58760;48.716;8.962;2023-08-24T14:51:36;16.80;;;4.75;;
71104;SDS011;58760;48.716;8.962;2023-08-24T14:54:01;11.63;;;5.07;;
71104;SDS011;58760;48.716;8.962;2023-08-24T14:56:26;18.02;;;5.10;;
71104;SDS011;58760;48.716;8.962;2023-08-24T14:58:52;13.82;;;5.45;;
71104;SDS011;58760;48.716;8.962;2023-08-24T15:01:17;15.73;;;5.20;;
71104;SDS011;58760;48.716;8.962;2023-08-24T15:03:43;11.80;;;4.80;;
71104;SDS011;58760;48.716;8.962;2023-08-24T15:06:08;14.13;;;5.13;;
71104;SDS011;58760;48.716;8.962;2023-08-24T15:08:34;10.43;;;5.30;;
71104;SDS011;58760;48.716;8.962;2023-08-24T15:11:00;15.02;;;5.47;;
71104;SDS011;58760;48.716;8.962;2023-08-24T15:13:26;15.50;;;5.30;;
71104;SDS011;58760;48.716;8.962;2023-08-24T15:15:53;8.02;;;4.70;;
71104;SDS011;58760;48.716;8.962;2023-08-24T15:18:19;10.88;;;3.97;;
71104;SDS011;58760;48.716;8.962;2023-08-24T15:20:45;9.05;;;3.97;;
71104;SDS011;58760;48.716;8.962;2023-08-24T15:23:19;11.95;;;4.03;;
71104;SDS011;58760;48.716;8.962;2023-08-24T15:26:03;10.13;;;3.92;;
71104;SDS011;58760;48.716;8.962;2023-08-24T15:28:34;8.80;;;3.63;;
71104;SDS011;58760;48.716;8.962;2023-08-24T15:31:01;8.38;;;3.08;;
71104;SDS011;58760;48.716;8.962;2023-08-24T15:33:26;9.75;;;3.20;;
71104;SDS011;58760;48.716;8.962;2023-08-24T15:35:52;8.77;;;2.67;;
71104;SDS011;58760;48.716;8.962;2023-08-24T15:38:17;13.93;;;3.35;;
71104;SDS011;58760;48.716;8.962;2023-08-24T15:40:42;7.35;;;2.75;;
71104;SDS011;58760;48.716;8.962;2023-08-24T15:43:17;6.82;;;3.35;;
71104;SDS011;58760;48.716;8.962;2023-08-24T15:48:07;9.18;;;3.67;;
71104;SDS011;58760;48.716;8.962;2023-08-24T15:50:32;8.07;;;3.58;;
71104;SDS011;58760;48.716;8.962;2023-08-24T15:55:32;50.25;;;9.55;;
71104;SDS011;58760;48.716;8.962;2023-08-24T15:58:01;8.82;;;3.50;;
71104;SDS011;58760;48.716;8.962;2023-08-24T16:00:27;20.88;;;4.70;;
71104;SDS011;58760;48.716;8.962;2023-08-24T16:02:53;24.52;;;6.68;;
71104;SDS011;58760;48.716;8.962;2023-08-24T16:05:19;8.05;;;3.88;;